LiveATC.Net - Listen to live air traffic control over the Internet!


ICAO: KDKB  IATA: DKB   Airport: De Kalb Taylor Municipal Airport
City: De Kalb   State/Province: Illinois
Country: United States   Continent: North America
KDKB METAR Weather: KDKB 140655Z AUTO 15010KT 7SM -TSRA SCT045 BKN060 BKN075 19/18 A3008 RMK AO2 LTG DSNT ALQS P0068 T01910182
KDKB ADS-B Flight Tracking  (ADSBExchange)
KDKB Flight Activity (FlightAware)
KDKB Airport Info   (iFlightPlanner)
KDKB VFR Sectional Chart   (iFlightPlanner) 
KDKB IFR Low Altitude Chart   (iFlightPlanner) 
KDKB IFR High Altitude Chart   (iFlightPlanner) 

KDKB CTAF
Feed Status: UP   Listeners: 0
Listen in your browser - HTML5 player (in browser, HTML5)
Click here to listen with your own player (launches your MP3 player)
Archive Access: KDKB CTAF
FacilityFrequency
De Kalb CTAF122.700

NOTICE

Unauthorized use prohibited. See LiveATC.net Terms of Service


Airport/ARTCC Code
Frequency Search
(e.g., 124.400, 128.75)
Site-wide search
 


Browse Feeds
Top 50 Feeds
HF Oceanic Feeds
Coverage Map
Bad Weather Areas

LiveATC FAQ

Increase Coverage

Contact LiveATC.net
Press Inquiries

LiveATC on iPhone
LiveATC on Android

LiveATC Mobile
(Mobile browser)

ATC Audio Archives
Interesting Recordings

LiveATC Forums


Home Page
About LiveATC.net


Terms of Use
Privacy Policy

AIRMETs/SIGMETs

FAA Airport Status
NAS Status
Arrival Demand


Server Software By:
Icecast.org
Liquidsoap